Time;durP1;ratioP1;P1;durP2;ratioP2;P2;SDS_P1;SDS_P2;PMS_P1;PMS_P2;Temp;Humidity;BMP_temperature;BMP_pressure;BME280_temperature;BME280_humidity;BME280_pressure;Samples;Min_cycle;Max_cycle;Signal;HPM_P1;HPM_P2
2022/10/29 00:00:14;;;;;;;4.50;2.23;;;;;;;13.47;100.00;100875.00;5029884;28;20477;-53
2022/10/29 00:02:40;;;;;;;10.03;2.70;;;;;;;13.57;100.00;100887.16;5029864;28;20426;-52
2022/10/29 00:05:07;;;;;;;3.93;2.50;;;;;;;13.36;100.00;100871.78;5029667;28;20602;-53
2022/10/29 00:07:34;;;;;;;2.10;2.00;;;;;;;13.39;100.00;100873.47;5030007;28;20899;-53
2022/10/29 00:10:00;;;;;;;9.00;2.50;;;;;;;13.34;100.00;100873.63;5029931;28;20468;-55
2022/10/29 00:12:26;;;;;;;2.03;1.93;;;;;;;13.40;100.00;100883.22;5027732;28;20985;-53
2022/10/29 00:14:53;;;;;;;2.47;2.27;;;;;;;13.31;100.00;100879.06;5029508;28;20487;-54
2022/10/29 00:17:19;;;;;;;2.07;1.50;;;;;;;13.19;100.00;100874.09;5029592;28;20453;-53
2022/10/29 00:19:45;;;;;;;10.30;2.90;;;;;;;13.32;100.00;100879.00;5029343;28;21000;-54
2022/10/29 00:22:12;;;;;;;2.73;1.97;;;;;;;13.36;100.00;100878.91;5029658;28;20430;-54
2022/10/29 00:24:38;;;;;;;16.73;2.20;;;;;;;13.22;100.00;100871.31;5029600;28;20458;-55
2022/10/29 00:27:05;;;;;;;2.50;2.30;;;;;;;13.20;100.00;100874.03;5016248;28;20451;-53
2022/10/29 00:29:31;;;;;;;7.73;2.47;;;;;;;13.26;100.00;100887.19;5029008;28;20457;-54
2022/10/29 00:31:57;;;;;;;2.73;2.53;;;;;;;13.22;100.00;100874.84;5026371;28;20461;-55
2022/10/29 00:34:24;;;;;;;17.23;1.70;;;;;;;13.14;100.00;100881.28;5020950;28;20479;-53
2022/10/29 00:36:50;;;;;;;16.47;2.10;;;;;;;13.06;100.00;100881.53;5029467;28;20459;-54
2022/10/29 00:39:18;;;;;;;2.70;1.93;;;;;;;13.07;100.00;100877.94;5029372;28;20491;-54
2022/10/29 00:41:45;;;;;;;2.03;1.90;;;;;;;13.09;100.00;100885.91;5022300;28;20451;-55
2022/10/29 00:44:14;;;;;;;1.37;1.27;;;;;;;13.04;100.00;100894.06;5029287;28;20533;-53
2022/10/29 00:46:45;;;;;;;2.73;2.53;;;;;;;13.00;100.00;100898.59;5028833;28;20842;-54
2022/10/29 00:49:13;;;;;;;25.63;3.50;;;;;;;13.09;100.00;100891.25;5029314;28;20497;-55
2022/10/29 00:51:39;;;;;;;5.43;2.07;;;;;;;12.97;100.00;100881.81;5029223;28;20566;-54
2022/10/29 00:54:11;;;;;;;1.90;1.13;;;;;;;12.92;100.00;100881.06;5029037;28;20472;-52
2022/10/29 00:56:44;;;;;;;1.70;1.37;;;;;;;12.93;100.00;100890.81;5029074;28;20455;-54
2022/10/29 00:59:11;;;;;;;5.33;1.20;;;;;;;12.88;100.00;100887.38;5029197;28;20768;-54
2022/10/29 01:01:38;;;;;;;11.83;3.50;;;;;;;12.92;100.00;100894.41;5028963;28;20456;-54
2022/10/29 01:04:05;;;;;;;6.00;1.83;;;;;;;12.84;100.00;100893.75;5028946;28;20779;-55
2022/10/29 01:06:32;;;;;;;2.30;1.40;;;;;;;12.84;100.00;100883.94;5029075;28;20456;-55
2022/10/29 01:08:58;;;;;;;18.67;2.70;;;;;;;13.00;100.00;100884.38;5028915;28;20452;-54
2022/10/29 01:11:57;;;;;;;2.77;2.13;;;;;;;13.04;100.00;100896.72;5028304;28;20525;-54
2022/10/29 01:14:35;;;;;;;2.53;1.97;;;;;;;13.05;100.00;100887.81;5002793;28;20462;-53
2022/10/29 01:17:24;;;;;;;4.00;1.87;;;;;;;12.87;100.00;100881.19;5028767;28;20452;-54
2022/10/29 01:20:28;;;;;;;6.73;3.10;;;;;;;12.83;100.00;100873.31;5029173;28;20549;-54
2022/10/29 01:23:32;;;;;;;3.40;1.67;;;;;;;12.93;100.00;100881.03;5028784;28;20451;-54
2022/10/29 01:26:23;;;;;;;8.70;2.93;;;;;;;12.87;100.00;100870.50;5019825;28;20475;-54
2022/10/29 01:29:13;;;;;;;1.93;1.80;;;;;;;12.77;100.00;100865.50;5028007;28;20463;-52
2022/10/29 01:31:54;;;;;;;2.70;1.60;;;;;;;12.77;100.00;100863.72;5028102;28;20482;-54
2022/10/29 01:34:32;;;;;;;3.93;2.33;;;;;;;12.76;100.00;100867.28;5020134;28;20471;-54
2022/10/29 01:37:20;;;;;;;1.00;0.90;;;;;;;12.69;100.00;100871.03;5028622;28;20455;-54
2022/10/29 01:40:06;;;;;;;1.23;1.13;;;;;;;12.57;100.00;100864.25;5028560;28;20526;-55
2022/10/29 01:42:41;;;;;;;2.40;2.20;;;;;;;12.53;100.00;100867.91;5025633;28;20445;-54
2022/10/29 01:45:18;;;;;;;3.67;2.37;;;;;;;12.59;100.00;100861.53;5032322;28;20913;-53
2022/10/29 01:47:57;;;;;;;2.00;1.87;;;;;;;12.50;100.00;100869.81;5032603;28;20548;-54
2022/10/29 01:50:24;;;;;;;5.33;2.37;;;;;;;12.58;100.00;100866.00;5032361;28;20449;-53
2022/10/29 01:52:53;;;;;;;1.70;1.60;;;;;;;12.51;100.00;100863.56;5032238;28;20447;-54
2022/10/29 01:55:28;;;;;;;3.07;1.67;;;;;;;12.49;100.00;100863.59;5032330;28;20528;-54
2022/10/29 01:57:55;;;;;;;16.20;3.43;;;;;;;12.53;100.00;100865.25;5032325;28;20458;-54
2022/10/29 02:00:23;;;;;;;1.90;1.67;;;;;;;12.65;100.00;100864.91;5032256;28;20565;-54
2022/10/29 02:03:07;;;;;;;3.73;1.63;;;;;;;12.52;100.00;100867.97;5032239;28;20513;-54
2022/10/29 02:05:58;;;;;;;1.40;1.00;;;;;;;12.39;100.00;100859.41;5032031;28;20454;-54
2022/10/29 02:09:07;;;;;;;4.83;1.73;;;;;;;12.44;100.00;100874.38;5032231;28;20458;-53
2022/10/29 02:12:02;;;;;;;3.00;1.40;;;;;;;12.40;100.00;100870.03;4965838;28;20851;-54
2022/10/29 02:14:34;;;;;;;15.60;2.43;;;;;;;12.20;100.00;100867.03;4981033;28;20480;-54
2022/10/29 02:17:01;;;;;;;3.03;2.83;;;;;;;12.22;100.00;100875.00;5031916;28;20452;-54
2022/10/29 02:19:30;;;;;;;3.90;2.20;;;;;;;12.15;100.00;100877.81;5031991;28;20980;-54
2022/10/29 02:21:56;;;;;;;7.80;2.20;;;;;;;12.15;100.00;100874.25;5031677;28;20864;-53
2022/10/29 02:24:23;;;;;;;1.37;1.10;;;;;;;12.04;100.00;100873.66;5032077;28;20475;-54
2022/10/29 02:26:50;;;;;;;2.20;2.10;;;;;;;12.05;100.00;100872.72;5018151;28;20452;-54
2022/10/29 02:29:17;;;;;;;3.50;2.70;;;;;;;12.10;100.00;100871.72;5031774;28;20447;-53
2022/10/29 02:31:43;;;;;;;26.73;1.47;;;;;;;12.18;100.00;100862.63;5030514;28;20455;-54
2022/10/29 02:34:10;;;;;;;4.97;2.80;;;;;;;12.11;100.00;100860.16;5022240;28;20750;-54
2022/10/29 02:36:36;;;;;;;2.50;2.30;;;;;;;12.19;100.00;100872.38;5031522;28;20482;-53
2022/10/29 02:39:03;;;;;;;7.00;1.60;;;;;;;12.21;100.00;100859.91;5031487;28;20561;-54
2022/10/29 02:41:29;;;;;;;2.40;2.10;;;;;;;12.06;100.00;100864.72;5023869;28;20459;-53
2022/10/29 02:43:56;;;;;;;1.33;1.23;;;;;;;12.10;100.00;100852.19;5031096;28;20980;-54
2022/10/29 02:46:23;;;;;;;2.20;1.27;;;;;;;11.99;100.00;100849.81;5031447;28;20512;-53
2022/10/29 02:48:49;;;;;;;4.20;1.60;;;;;;;11.99;100.00;100843.59;5031536;28;20459;-53
2022/10/29 02:51:16;;;;;;;2.23;2.03;;;;;;;12.09;100.00;100846.00;5031274;28;20482;-54
2022/10/29 02:53:43;;;;;;;33.07;2.37;;;;;;;12.12;100.00;100847.69;5030295;28;20529;-54
2022/10/29 02:56:09;;;;;;;6.13;2.63;;;;;;;12.10;100.00;100849.53;5030835;28;20855;-54
2022/10/29 02:58:36;;;;;;;1.50;1.40;;;;;;;12.10;100.00;100860.19;5031346;28;20510;-55
2022/10/29 03:01:03;;;;;;;1.80;1.70;;;;;;;12.00;100.00;100862.19;5030834;28;20498;-54
2022/10/29 03:03:29;;;;;;;17.57;2.93;;;;;;;12.14;100.00;100854.72;5031127;28;20521;-53
2022/10/29 03:05:56;;;;;;;2.30;1.97;;;;;;;12.18;100.00;100855.53;5031007;28;20510;-53
2022/10/29 03:08:22;;;;;;;13.87;2.53;;;;;;;12.01;100.00;100857.75;5030901;28;20525;-54
2022/10/29 03:10:49;;;;;;;2.50;2.00;;;;;;;12.04;100.00;100857.66;5030611;28;20574;-54
2022/10/29 03:13:16;;;;;;;9.07;3.20;;;;;;;11.93;100.00;100862.41;5030782;28;20798;-55
2022/10/29 03:15:44;;;;;;;9.50;2.27;;;;;;;11.94;100.00;100862.38;5031340;28;20449;-54
2022/10/29 03:18:10;;;;;;;2.37;2.17;;;;;;;11.82;100.00;100860.88;5031046;28;20515;-54
2022/10/29 03:20:38;;;;;;;1.20;1.10;;;;;;;11.82;100.00;100855.56;5030708;28;20495;-54
2022/10/29 03:23:04;;;;;;;42.40;3.43;;;;;;;11.87;100.00;100855.44;5030576;28;20456;-55
2022/10/29 03:25:31;;;;;;;1.83;1.73;;;;;;;11.86;100.00;100851.88;5025440;28;20453;-55
2022/10/29 03:27:57;;;;;;;3.27;1.13;;;;;;;11.77;100.00;100845.88;5022959;28;20452;-56
2022/10/29 03:30:24;;;;;;;1.70;1.50;;;;;;;11.79;100.00;100852.97;5030389;28;20855;-55
2022/10/29 03:32:50;;;;;;;2.93;2.07;;;;;;;11.81;100.00;100852.94;5020315;28;20468;-56
2022/10/29 03:35:17;;;;;;;1.60;1.50;;;;;;;11.71;100.00;100840.72;5029483;28;20870;-56
2022/10/29 03:37:43;;;;;;;3.60;1.80;;;;;;;11.65;100.00;100844.41;5030583;28;20431;-55
2022/10/29 03:40:10;;;;;;;1.03;0.93;;;;;;;11.73;100.00;100841.53;5030241;28;20495;-55
2022/10/29 03:42:37;;;;;;;2.13;1.40;;;;;;;11.71;100.00;100841.59;5023583;28;20451;-55
2022/10/29 03:45:04;;;;;;;1.67;1.57;;;;;;;11.79;100.00;100850.31;5030065;28;20901;-56
2022/10/29 03:47:32;;;;;;;2.37;2.17;;;;;;;11.80;100.00;100861.84;5030199;28;20456;-55
2022/10/29 03:49:58;;;;;;;2.53;2.33;;;;;;;11.65;100.00;100854.16;5030224;28;20430;-55
2022/10/29 03:52:25;;;;;;;13.00;2.40;;;;;;;11.58;100.00;100854.31;5029975;28;20455;-55
2022/10/29 03:54:51;;;;;;;1.10;1.00;;;;;;;11.68;100.00;100862.97;5029981;28;20880;-54
2022/10/29 03:57:18;;;;;;;3.37;1.97;;;;;;;11.83;100.00;100862.63;5029935;28;21014;-56
2022/10/29 03:59:44;;;;;;;1.20;1.10;;;;;;;11.80;100.00;100865.38;5029694;28;21078;-56
2022/10/29 04:02:16;;;;;;;1.50;1.40;;;;;;;11.83;100.00;100862.63;5029958;28;20452;-55
2022/10/29 04:04:43;;;;;;;4.10;2.50;;;;;;;11.89;100.00;100856.25;5029510;28;20511;-53
2022/10/29 04:07:11;;;;;;;1.83;1.73;;;;;;;11.96;100.00;100843.69;5029917;28;20456;-56
2022/10/29 04:09:37;;;;;;;1.80;1.70;;;;;;;12.01;100.00;100844.44;5030073;28;21020;-55
2022/10/29 04:12:04;;;;;;;3.70;2.77;;;;;;;12.15;100.00;100836.94;5029573;28;20510;-57
2022/10/29 04:14:30;;;;;;;2.00;1.90;;;;;;;12.19;100.00;100843.94;5028240;28;20579;-56
2022/10/29 04:16:57;;;;;;;5.43;1.40;;;;;;;12.28;100.00;100848.16;5030412;28;20517;-54
2022/10/29 04:19:24;;;;;;;1.70;1.60;;;;;;;12.34;100.00;100848.91;5029381;28;20880;-54
2022/10/29 04:21:50;;;;;;;2.97;2.33;;;;;;;12.27;100.00;100851.75;5029796;28;20455;-54
2022/10/29 04:24:37;;;;;;;8.50;1.17;;;;;;;12.32;100.00;100837.38;5029604;28;20525;-54
2022/10/29 04:27:23;;;;;;;1.57;1.47;;;;;;;12.38;100.00;100839.88;5004503;28;20535;-54
2022/10/29 04:30:10;;;;;;;2.67;2.47;;;;;;;12.51;100.00;100842.22;5029074;28;21036;-55
2022/10/29 04:32:36;;;;;;;10.33;2.00;;;;;;;12.60;100.00;100845.47;5021387;28;20460;-54
2022/10/29 04:35:03;;;;;;;5.83;2.87;;;;;;;12.60;100.00;100844.59;5026575;28;20839;-56
2022/10/29 04:37:29;;;;;;;2.03;1.93;;;;;;;12.59;100.00;100838.41;5029822;28;20452;-54
2022/10/29 04:39:55;;;;;;;11.73;2.60;;;;;;;12.68;100.00;100843.50;5029047;28;21079;-55
2022/10/29 04:42:22;;;;;;;3.57;3.37;;;;;;;12.70;100.00;100841.66;5022133;28;20871;-54
2022/10/29 04:44:48;;;;;;;1.93;1.83;;;;;;;12.73;100.00;100836.22;5029107;28;20902;-55
2022/10/29 04:47:14;;;;;;;21.50;3.67;;;;;;;12.74;100.00;100847.75;5029376;28;20451;-53
2022/10/29 04:49:41;;;;;;;3.10;2.37;;;;;;;12.77;100.00;100841.50;5029328;28;20459;-54
2022/10/29 04:52:07;;;;;;;2.97;2.77;;;;;;;12.92;100.00;100846.38;5029249;28;20455;-53
2022/10/29 04:54:33;;;;;;;8.77;1.80;;;;;;;12.85;100.00;100840.34;5028787;28;20446;-54
2022/10/29 04:57:00;;;;;;;0.53;0.53;;;;;;;12.82;100.00;100834.22;5028961;28;20462;-54
2022/10/29 04:59:26;;;;;;;2.43;1.80;;;;;;;12.81;100.00;100843.16;5029004;28;20481;-52
2022/10/29 05:01:53;;;;;;;3.13;1.13;;;;;;;12.88;100.00;100847.38;5029152;28;20513;-54
2022/10/29 05:04:19;;;;;;;6.20;2.30;;;;;;;12.93;100.00;100846.34;5028735;28;20574;-53
2022/10/29 05:06:45;;;;;;;7.47;2.60;;;;;;;12.87;100.00;100853.63;5029142;28;20515;-54
2022/10/29 05:09:12;;;;;;;4.23;2.20;;;;;;;12.84;100.00;100849.25;5028711;28;20941;-53
2022/10/29 05:11:38;;;;;;;5.50;2.30;;;;;;;12.84;100.00;100843.91;5028614;28;20456;-53
2022/10/29 05:14:05;;;;;;;5.03;3.03;;;;;;;12.85;100.00;100848.34;5028731;28;20479;-54
2022/10/29 05:16:31;;;;;;;4.97;3.70;;;;;;;12.85;100.00;100842.13;5033548;28;20881;-53
2022/10/29 05:18:58;;;;;;;2.40;2.30;;;;;;;12.88;100.00;100834.91;5035444;28;20478;-55
2022/10/29 05:21:24;;;;;;;2.40;2.20;;;;;;;12.89;100.00;100825.13;5035340;28;20494;-53
2022/10/29 05:23:50;;;;;;;5.20;2.50;;;;;;;12.87;100.00;100835.81;5035111;28;20525;-55
2022/10/29 05:26:17;;;;;;;4.33;2.97;;;;;;;12.94;100.00;100847.22;5023979;28;20427;-54
2022/10/29 05:28:43;;;;;;;14.03;2.83;;;;;;;12.95;100.00;100836.47;5033909;28;20518;-55
2022/10/29 05:31:09;;;;;;;2.33;2.10;;;;;;;12.91;100.00;100834.84;5035600;28;20515;-55
2022/10/29 05:33:36;;;;;;;3.50;2.93;;;;;;;13.00;100.00;100826.53;5023634;28;20487;-54
2022/10/29 05:36:03;;;;;;;17.13;2.20;;;;;;;12.94;100.00;100823.19;5035369;28;20426;-54
2022/10/29 05:38:29;;;;;;;4.20;2.63;;;;;;;13.02;100.00;100826.50;5034799;28;20525;-53
2022/10/29 05:40:59;;;;;;;2.33;1.77;;;;;;;13.00;100.00;100823.00;5029308;28;20499;-55
2022/10/29 05:43:25;;;;;;;4.20;1.63;;;;;;;12.94;100.00;100823.19;5034356;28;20480;-54
2022/10/29 05:45:52;;;;;;;3.17;2.93;;;;;;;13.02;100.00;100830.06;5034919;28;20426;-54
2022/10/29 05:48:18;;;;;;;1.77;1.60;;;;;;;13.18;100.00;100824.25;5035071;28;20502;-55
2022/10/29 05:50:45;;;;;;;2.13;1.93;;;;;;;13.15;100.00;100827.00;5034920;28;20992;-55
2022/10/29 05:53:13;;;;;;;2.90;2.37;;;;;;;13.12;100.00;100819.09;5034723;28;20478;-56
2022/10/29 05:55:40;;;;;;;13.97;2.80;;;;;;;13.13;100.00;100829.72;5035347;28;20422;-54
2022/10/29 05:58:10;;;;;;;18.67;3.07;;;;;;;13.09;100.00;100825.41;5034846;28;20450;-54
2022/10/29 06:00:39;;;;;;;4.07;3.53;;;;;;;13.12;100.00;100825.28;5034963;28;20499;-54
2022/10/29 06:03:11;;;;;;;11.00;3.77;;;;;;;13.17;100.00;100825.19;5009649;28;20547;-54
2022/10/29 06:05:38;;;;;;;2.93;2.57;;;;;;;13.25;100.00;100834.72;5034670;28;20434;-54
2022/10/29 06:08:04;;;;;;;3.57;2.83;;;;;;;13.24;100.00;100835.63;5035193;28;20535;-54
2022/10/29 06:10:31;;;;;;;2.40;2.20;;;;;;;13.28;100.00;100839.06;5034879;28;20509;-54
2022/10/29 06:12:58;;;;;;;4.23;3.17;;;;;;;13.24;100.00;100832.09;5034766;28;20859;-57
2022/10/29 06:15:24;;;;;;;3.13;2.90;;;;;;;13.26;100.00;100833.78;5034762;28;20477;-55
2022/10/29 06:17:50;;;;;;;3.30;2.97;;;;;;;13.19;100.00;100832.25;5034860;28;20505;-54
2022/10/29 06:20:19;;;;;;;2.57;2.33;;;;;;;13.17;100.00;100835.84;5034895;28;20522;-57
2022/10/29 06:22:46;;;;;;;2.60;2.40;;;;;;;13.27;100.00;100835.53;5035033;28;20871;-55
2022/10/29 06:25:12;;;;;;;5.90;3.80;;;;;;;13.23;100.00;100839.22;5031954;28;20480;-53
2022/10/29 06:27:39;;;;;;;6.77;2.63;;;;;;;13.26;100.00;100839.13;5021479;28;20759;-54
2022/10/29 06:30:06;;;;;;;2.87;2.67;;;;;;;13.26;100.00;100835.59;5031527;28;20447;-54
2022/10/29 06:32:32;;;;;;;5.10;2.10;;;;;;;13.27;100.00;100845.34;5022389;28;20483;-54
2022/10/29 06:34:59;;;;;;;3.10;2.83;;;;;;;13.35;100.00;100837.97;5028246;28;20483;-53
2022/10/29 06:37:25;;;;;;;2.23;2.10;;;;;;;13.33;100.00;100843.38;5031651;28;20576;-54
2022/10/29 06:39:52;;;;;;;3.20;2.93;;;;;;;13.39;100.00;100836.09;5031490;28;20481;-55
2022/10/29 06:42:18;;;;;;;10.03;4.20;;;;;;;13.36;100.00;100841.53;5031427;28;20582;-55
2022/10/29 06:44:44;;;;;;;10.97;2.40;;;;;;;13.36;100.00;100847.72;5031101;28;20471;-54
2022/10/29 06:47:11;;;;;;;5.73;2.53;;;;;;;13.40;100.00;100840.50;5031200;28;20455;-53
2022/10/29 06:49:37;;;;;;;5.50;2.40;;;;;;;13.38;100.00;100851.22;5031332;28;20502;-54
2022/10/29 06:52:04;;;;;;;2.50;2.30;;;;;;;13.39;100.00;100844.97;5031565;28;20451;-55
2022/10/29 06:54:30;;;;;;;2.87;2.67;;;;;;;13.46;100.00;100843.00;5031180;28;20453;-55
2022/10/29 06:56:56;;;;;;;2.30;2.20;;;;;;;13.45;100.00;100843.91;5031140;28;20455;-55
2022/10/29 06:59:23;;;;;;;3.40;3.20;;;;;;;13.45;100.00;100842.13;5031164;28;20866;-54
2022/10/29 07:01:49;;;;;;;13.90;4.03;;;;;;;13.39;100.00;100846.75;5030751;28;20603;-55
2022/10/29 07:04:17;;;;;;;13.20;4.70;;;;;;;13.39;100.00;100838.75;5031087;28;20450;-55
2022/10/29 07:06:43;;;;;;;4.17;3.93;;;;;;;13.50;100.00;100847.31;5031054;28;20456;-54
2022/10/29 07:09:10;;;;;;;6.10;4.00;;;;;;;13.54;100.00;100841.81;5030921;28;20455;-55
2022/10/29 07:11:36;;;;;;;9.23;3.63;;;;;;;13.58;100.00;100848.81;5030897;28;20505;-54
2022/10/29 07:14:04;;;;;;;2.40;2.20;;;;;;;13.62;100.00;100839.78;5030626;28;20902;-54
2022/10/29 07:16:31;;;;;;;5.77;2.30;;;;;;;13.92;100.00;100839.69;5030519;28;20489;-54
2022/10/29 07:18:57;;;;;;;4.73;4.43;;;;;;;13.89;100.00;100843.34;5030990;28;20471;-54
2022/10/29 07:21:24;;;;;;;6.10;4.23;;;;;;;13.97;100.00;100844.88;5030596;28;20862;-54
2022/10/29 07:23:50;;;;;;;2.50;2.30;;;;;;;13.95;100.00;100844.94;5030717;28;20475;-54
2022/10/29 07:26:16;;;;;;;3.87;2.50;;;;;;;13.98;100.00;100854.63;5019058;28;20831;-55
2022/10/29 07:28:43;;;;;;;4.37;2.47;;;;;;;14.03;100.00;100856.25;5028798;28;20490;-54
2022/10/29 07:31:09;;;;;;;2.87;2.67;;;;;;;14.09;100.00;100857.81;5030268;28;20463;-54
2022/10/29 07:33:36;;;;;;;4.20;3.70;;;;;;;14.16;100.00;100860.25;5019121;28;20462;-54
2022/10/29 07:36:02;;;;;;;4.33;3.73;;;;;;;14.17;100.00;100864.66;5030724;28;20427;-54
2022/10/29 07:38:29;;;;;;;8.80;3.30;;;;;;;14.17;100.00;100863.78;5030087;28;20899;-55
2022/10/29 07:40:55;;;;;;;8.43;3.33;;;;;;;14.18;100.00;100862.88;5030267;28;20897;-53
2022/10/29 07:43:22;;;;;;;6.60;3.60;;;;;;;14.20;100.00;100861.88;5030010;28;20868;-55
2022/10/29 07:45:50;;;;;;;8.93;3.27;;;;;;;14.28;100.00;100863.44;5030314;28;20476;-55
2022/10/29 07:48:18;;;;;;;4.10;3.80;;;;;;;14.20;100.00;100864.56;5030291;28;20502;-54
2022/10/29 07:50:45;;;;;;;13.53;4.13;;;;;;;14.20;100.00;100863.69;5030241;28;20430;-53
2022/10/29 07:53:11;;;;;;;8.77;3.53;;;;;;;14.28;100.00;100864.31;5030032;28;20980;-55
2022/10/29 07:55:38;;;;;;;3.60;3.40;;;;;;;14.32;100.00;100857.91;5029997;28;20847;-54
2022/10/29 07:58:06;;;;;;;5.63;4.13;;;;;;;14.33;100.00;100867.69;5029927;28;20484;-54
2022/10/29 08:00:36;;;;;;;3.67;2.40;;;;;;;14.35;100.00;100865.81;5030026;28;20486;-54
2022/10/29 08:03:03;;;;;;;16.10;3.07;;;;;;;14.39;100.00;100867.50;5029968;28;20459;-54
2022/10/29 08:05:30;;;;;;;4.73;3.90;;;;;;;14.49;100.00;100871.59;5029891;28;20426;-52
2022/10/29 08:07:56;;;;;;;6.33;4.83;;;;;;;14.51;100.00;100856.38;5030002;28;20455;-55
2022/10/29 08:10:24;;;;;;;4.43;4.00;;;;;;;14.61;100.00;100862.25;5029530;28;20434;-56
2022/10/29 08:12:59;;;;;;;10.10;3.97;;;;;;;14.63;100.00;100867.56;5029839;28;20463;-56
2022/10/29 08:15:28;;;;;;;18.13;5.07;;;;;;;14.65;100.00;100871.91;5029773;28;20448;-55
2022/10/29 08:17:55;;;;;;;7.33;3.33;;;;;;;14.76;100.00;100872.41;5029718;28;20474;-56
2022/10/29 08:20:24;;;;;;;3.97;2.57;;;;;;;14.74;100.00;100871.59;5029441;28;20431;-55
2022/10/29 08:22:51;;;;;;;4.63;2.73;;;;;;;14.74;100.00;100866.25;5029696;28;20422;-55
2022/10/29 08:25:17;;;;;;;18.07;3.80;;;;;;;14.87;100.00;100868.47;5025822;28;20932;-55
2022/10/29 08:27:44;;;;;;;6.10;3.10;;;;;;;14.92;100.00;100870.03;5019906;28;20940;-56
2022/10/29 08:30:12;;;;;;;15.47;2.80;;;;;;;14.96;100.00;100863.66;5029479;28;20477;-55
2022/10/29 08:32:45;;;;;;;5.97;5.30;;;;;;;15.03;100.00;100865.16;5020866;28;20460;-55
2022/10/29 08:35:13;;;;;;;6.50;3.47;;;;;;;15.04;100.00;100864.22;5027575;28;20446;-55
2022/10/29 08:37:44;;;;;;;4.83;4.43;;;;;;;15.06;100.00;100862.38;5029214;28;20459;-54
2022/10/29 08:40:28;;;;;;;14.53;3.33;;;;;;;15.09;100.00;100867.63;5029508;28;20430;-55
2022/10/29 08:43:03;;;;;;;10.30;3.73;;;;;;;15.09;100.00;100877.47;5029009;28;20447;-55
2022/10/29 08:45:46;;;;;;;28.47;5.77;;;;;;;15.03;100.00;100866.97;5029118;28;20839;-55
2022/10/29 08:48:31;;;;;;;9.10;4.17;;;;;;;15.08;100.00;100867.69;5028895;28;20929;-56
2022/10/29 08:51:14;;;;;;;33.20;6.13;;;;;;;15.14;100.00;100859.41;5028776;28;20451;-56
2022/10/29 08:53:53;;;;;;;13.37;7.50;;;;;;;15.14;100.00;100863.88;5029133;28;20504;-55
2022/10/29 08:56:46;;;;;;;11.23;5.23;;;;;;;15.16;100.00;100862.03;5005389;28;20446;-55
2022/10/29 08:59:16;;;;;;;6.40;5.03;;;;;;;15.20;100.00;100856.47;5026911;28;20447;-56
2022/10/29 09:01:43;;;;;;;9.83;6.50;;;;;;;15.26;100.00;100861.63;5018722;28;20521;-55
2022/10/29 09:04:32;;;;;;;3.83;3.43;;;;;;;15.38;100.00;100862.94;5012137;28;20503;-56
2022/10/29 09:07:16;;;;;;;4.23;2.93;;;;;;;15.45;100.00;100861.75;5004883;28;20446;-55
2022/10/29 09:09:42;;;;;;;6.40;2.60;;;;;;;15.56;100.00;100856.84;5006833;28;20845;-56
2022/10/29 09:12:36;;;;;;;4.43;3.27;;;;;;;15.63;100.00;100857.53;5028981;28;20422;-56
2022/10/29 09:15:30;;;;;;;10.20;4.80;;;;;;;15.68;100.00;100850.16;5042369;23;20478;-55
2022/10/29 09:18:06;;;;;;;5.90;4.40;;;;;;;15.75;100.00;100856.13;5017543;28;20525;-56
2022/10/29 09:20:32;;;;;;;4.30;4.00;;;;;;;15.80;100.00;100849.66;5028270;28;20469;-56
2022/10/29 09:23:04;;;;;;;4.10;3.80;;;;;;;15.83;100.00;100854.03;5029046;28;20455;-56
2022/10/29 09:25:52;;;;;;;3.07;2.97;;;;;;;15.88;100.00;100854.69;5023278;28;21011;-55
2022/10/29 09:28:55;;;;;;;19.60;3.60;;;;;;;15.98;100.00;100853.38;5024041;28;20448;-55
2022/10/29 09:31:30;;;;;;;9.57;4.20;;;;;;;16.38;100.00;100852.56;5027437;28;20480;-55
2022/10/29 09:34:03;;;;;;;7.20;4.30;;;;;;;16.17;100.00;100854.38;5017775;28;20957;-55
2022/10/29 09:36:30;;;;;;;6.57;5.03;;;;;;;16.18;100.00;100853.44;5019463;28;20431;-55
2022/10/29 09:39:03;;;;;;;24.03;9.20;;;;;;;16.18;100.00;100853.44;5028967;28;20513;-55
2022/10/29 09:41:32;;;;;;;6.97;5.13;;;;;;;16.29;100.00;100845.78;5028549;28;20814;-55
2022/10/29 09:44:06;;;;;;;10.10;3.60;;;;;;;16.36;100.00;100840.16;5028828;28;20430;-55
2022/10/29 09:46:46;;;;;;;7.03;4.30;;;;;;;16.82;100.00;100842.56;5028267;28;20456;-55
2022/10/29 09:49:12;;;;;;;14.47;5.03;;;;;;;16.62;100.00;100834.50;5028699;28;20451;-55
2022/10/29 09:51:44;;;;;;;2.83;2.63;;;;;;;17.14;100.00;100834.84;5001733;28;20462;-55
2022/10/29 09:54:11;;;;;;;16.60;4.07;;;;;;;17.36;100.00;100843.63;5028262;28;20446;-55
2022/10/29 09:56:42;;;;;;;6.90;2.93;;;;;;;17.01;100.00;100828.31;5028243;28;20434;-55
2022/10/29 09:59:31;;;;;;;7.90;2.80;;;;;;;17.19;100.00;100835.50;5028417;28;20454;-58
2022/10/29 10:01:58;;;;;;;15.70;3.60;;;;;;;17.53;100.00;100839.25;5029821;28;20491;-56
2022/10/29 10:04:39;;;;;;;6.53;4.10;;;;;;;17.73;100.00;100841.88;5032108;28;20471;-56
2022/10/29 10:07:14;;;;;;;3.63;3.43;;;;;;;17.80;100.00;100832.53;5028234;28;20451;-56
2022/10/29 10:10:01;;;;;;;6.73;3.50;;;;;;;18.17;100.00;100828.88;5032242;28;20505;-56
2022/10/29 10:12:48;;;;;;;7.10;2.53;;;;;;;18.25;100.00;100821.28;5031868;28;20514;-56
2022/10/29 10:15:17;;;;;;;4.23;3.83;;;;;;;18.13;100.00;100821.91;5031770;28;20533;-56
2022/10/29 10:18:00;;;;;;;9.50;2.93;;;;;;;18.39;100.00;100815.19;5031779;28;20462;-55
2022/10/29 10:20:33;;;;;;;3.00;2.87;;;;;;;18.30;100.00;100819.22;5030587;28;20425;-56
2022/10/29 10:23:02;;;;;;;8.23;3.70;;;;;;;18.01;100.00;100809.94;5032308;28;20495;-56
2022/10/29 10:25:38;;;;;;;11.07;5.00;;;;;;;18.26;100.00;100812.25;5026812;28;20454;-56
2022/10/29 10:28:19;;;;;;;26.67;4.30;;;;;;;18.32;100.00;100811.06;5024722;28;20919;-56
2022/10/29 10:31:12;;;;;;;10.50;3.33;;;;;;;17.96;100.00;100811.16;5031869;28;20457;-56
2022/10/29 10:33:50;;;;;;;7.87;3.20;;;;;;;18.05;100.00;100805.28;5020642;28;20778;-56
2022/10/29 10:36:20;;;;;;;2.60;2.47;;;;;;;17.92;100.00;100805.03;5021953;28;20463;-56
2022/10/29 10:38:55;;;;;;;2.67;2.47;;;;;;;18.15;100.00;100800.31;5031396;28;21014;-56
2022/10/29 10:41:29;;;;;;;5.17;4.07;;;;;;;18.26;100.00;100796.09;5031557;28;20499;-56
2022/10/29 10:44:02;;;;;;;3.40;3.20;;;;;;;17.93;100.00;100787.06;5031416;28;20447;-56
2022/10/29 10:46:34;;;;;;;7.50;3.93;;;;;;;18.27;100.00;100786.22;5031329;28;20448;-56
2022/10/29 10:49:14;;;;;;;3.17;2.97;;;;;;;18.19;100.00;100783.03;5031304;28;20472;-56
2022/10/29 10:51:47;;;;;;;4.50;3.37;;;;;;;18.22;100.00;100782.88;5031365;28;20447;-56
2022/10/29 10:54:27;;;;;;;15.20;3.47;;;;;;;18.10;100.00;100783.53;5031251;28;20471;-55
2022/10/29 10:57:01;;;;;;;3.70;3.37;;;;;;;18.17;100.00;100777.75;5031336;28;20512;-55
2022/10/29 10:59:59;;;;;;;26.63;4.50;;;;;;;18.17;100.00;100788.50;5031056;28;20842;-56
2022/10/29 11:02:32;;;;;;;48.70;3.67;;;;;;;18.41;100.00;100786.34;4997080;28;20503;-55
2022/10/29 11:05:08;;;;;;;6.30;3.43;;;;;;;18.61;100.00;100783.44;5029853;28;20471;-55
2022/10/29 11:07:41;;;;;;;18.83;4.20;;;;;;;18.39;100.00;100782.88;5027365;28;20452;-55
2022/10/29 11:10:11;;;;;;;38.93;4.00;;;;;;;18.27;100.00;100781.69;5031244;28;20963;-56
2022/10/29 11:12:45;;;;;;;9.33;3.90;;;;;;;18.27;100.00;100773.63;5031024;28;20422;-56
2022/10/29 11:15:18;;;;;;;26.97;4.10;;;;;;;18.40;100.00;100770.28;5030277;28;20483;-56
2022/10/29 11:17:47;;;;;;;7.20;3.50;;;;;;;18.46;100.00;100778.03;5031438;28;20427;-56
2022/10/29 11:20:32;;;;;;;5.53;4.50;;;;;;;18.47;100.00;100771.69;5030727;28;20548;-55
2022/10/29 11:23:40;;;;;;;12.23;4.23;;;;;;;18.35;100.00;100765.13;5030965;28;20909;-56
2022/10/29 11:26:14;;;;;;;5.07;4.67;;;;;;;18.32;100.00;100768.00;5030592;28;20467;-56
2022/10/29 11:28:59;;;;;;;9.30;3.90;;;;;;;18.19;100.00;100748.91;5030440;28;20421;-56
2022/10/29 11:31:40;;;;;;;8.53;4.03;;;;;;;18.29;100.00;100762.78;5030586;28;20440;-56